createdAt,value
2023-04-01T00:01:01.320Z,19.48
2023-04-01T00:03:30.682Z,19.05
2023-04-01T00:05:58.873Z,19.27
2023-04-01T00:08:30.334Z,18.70
2023-04-01T00:10:58.132Z,18.77
2023-04-01T00:13:26.587Z,18.13
2023-04-01T00:15:54.845Z,17.75
2023-04-01T00:18:22.438Z,19.00
2023-04-01T00:20:52.601Z,17.45
2023-04-01T00:23:23.445Z,19.27
2023-04-01T00:25:51.247Z,18.05
2023-04-01T00:28:19.466Z,18.25
2023-04-01T00:30:47.325Z,18.23
2023-04-01T00:33:15.278Z,18.67
2023-04-01T00:35:42.930Z,18.25
2023-04-01T00:38:14.499Z,19.55
2023-04-01T00:40:43.157Z,19.13
2023-04-01T00:43:13.017Z,19.05
2023-04-01T00:45:42.018Z,17.33
2023-04-01T00:48:12.224Z,18.77
2023-04-01T00:50:41.990Z,18.25
2023-04-01T00:53:10.334Z,17.75
2023-04-01T00:55:41.366Z,20.02
2023-04-01T00:58:13.405Z,20.60
2023-04-01T01:00:41.013Z,19.30
2023-04-01T01:03:08.957Z,19.00
2023-04-01T01:05:48.771Z,19.45
2023-04-01T01:08:19.102Z,18.92
2023-04-01T01:10:51.401Z,18.58
2023-04-01T01:13:21.308Z,17.85
2023-04-01T01:15:50.971Z,18.10
2023-04-01T01:18:21.784Z,20.45
2023-04-01T01:21:03.906Z,18.75
2023-04-01T01:23:49.445Z,18.88
2023-04-01T01:26:36.006Z,21.13
2023-04-01T01:29:07.389Z,19.73
2023-04-01T01:31:38.689Z,19.25
2023-04-01T01:34:11.520Z,19.45
2023-04-01T01:36:43.649Z,19.83
2023-04-01T01:39:11.924Z,20.63
2023-04-01T01:41:41.061Z,18.98
2023-04-01T01:44:10.312Z,20.65
2023-04-01T01:46:38.366Z,18.50
2023-04-01T01:49:07.780Z,20.20
2023-04-01T01:51:35.816Z,19.35
2023-04-01T01:54:04.671Z,21.48
2023-04-01T01:56:32.768Z,20.27
2023-04-01T01:59:02.072Z,21.60
2023-04-01T02:01:31.936Z,20.35
2023-04-01T02:04:00.061Z,22.17
2023-04-01T02:06:28.313Z,20.70
2023-04-01T02:08:57.790Z,19.77
2023-04-01T02:11:28.347Z,20.73
2023-04-01T02:13:58.071Z,19.90
2023-04-01T02:16:28.165Z,19.73
2023-04-01T02:18:56.774Z,21.13
2023-04-01T02:21:26.589Z,21.38
2023-04-01T02:23:54.750Z,18.65
2023-04-01T02:26:23.168Z,22.27
2023-04-01T02:28:53.089Z,20.77
2023-04-01T02:31:22.056Z,23.27
2023-04-01T02:33:50.012Z,20.20
2023-04-01T02:36:18.059Z,20.85
2023-04-01T02:38:46.853Z,19.80
2023-04-01T02:41:14.396Z,19.92
2023-04-01T02:43:41.924Z,21.40
2023-04-01T02:46:10.888Z,21.98
2023-04-01T02:48:38.495Z,19.95
2023-04-01T02:51:06.024Z,20.58
2023-04-01T02:53:33.568Z,21.33
2023-04-01T02:56:01.308Z,19.63
2023-04-01T02:58:28.775Z,20.48
2023-04-01T03:00:56.334Z,20.58
2023-04-01T03:03:25.402Z,21.67
2023-04-01T03:05:52.972Z,20.80
2023-04-01T03:08:20.416Z,21.83
2023-04-01T03:10:47.975Z,21.60
2023-04-01T03:13:15.507Z,20.67
2023-04-01T03:15:43.074Z,20.83
2023-04-01T03:18:10.728Z,20.90
2023-04-01T03:20:39.657Z,21.23
2023-04-01T03:23:07.647Z,19.50
2023-04-01T03:25:35.358Z,20.90
2023-04-01T03:28:03.174Z,20.40
2023-04-01T03:30:32.336Z,19.98
2023-04-01T03:33:00.863Z,23.55
2023-04-01T03:35:28.505Z,20.27
2023-04-01T03:37:57.346Z,19.27
2023-04-01T03:40:25.084Z,19.42
2023-04-01T03:42:53.121Z,20.60
2023-04-01T03:45:20.821Z,18.58
2023-04-01T03:47:48.430Z,18.70
2023-04-01T03:50:16.014Z,17.98
2023-04-01T03:52:43.498Z,18.60
2023-04-01T03:55:12.583Z,20.10
2023-04-01T03:57:40.332Z,18.83
2023-04-01T04:00:09.720Z,19.02
2023-04-01T04:02:37.606Z,19.38
2023-04-01T04:05:05.525Z,19.35
2023-04-01T04:07:33.008Z,19.33
2023-04-01T04:10:00.883Z,19.90
2023-04-01T04:12:30.087Z,19.05
2023-04-01T04:14:58.663Z,19.08
2023-04-01T04:17:26.352Z,18.08
2023-04-01T04:19:53.854Z,18.33
2023-04-01T04:22:21.372Z,19.27
2023-04-01T04:24:48.928Z,18.80
2023-04-01T04:27:16.468Z,19.73
2023-04-01T04:29:45.468Z,20.00
2023-04-01T04:32:13.180Z,19.70
2023-04-01T04:34:40.715Z,20.08
2023-04-01T04:37:08.235Z,19.60
2023-04-01T04:39:35.844Z,18.75
2023-04-01T04:42:03.363Z,18.38
2023-04-01T04:44:31.002Z,19.60
2023-04-01T04:46:59.925Z,17.80
2023-04-01T04:49:27.495Z,19.25
2023-04-01T04:51:55.035Z,18.27
2023-04-01T04:54:22.627Z,19.17
2023-04-01T04:56:50.185Z,18.88
2023-04-01T04:59:17.702Z,18.10
2023-04-01T05:01:45.349Z,17.38
2023-04-01T05:04:14.371Z,16.38
2023-04-01T05:06:42.073Z,15.15
2023-04-01T05:09:09.618Z,15.95
2023-04-01T05:11:37.095Z,15.60
2023-04-01T05:14:07.335Z,15.95
2023-04-01T05:16:34.918Z,16.38
2023-04-01T05:19:02.462Z,16.40
2023-04-01T05:21:33.953Z,15.07
2023-04-01T05:24:01.573Z,15.07
2023-04-01T05:26:29.301Z,14.43
2023-04-01T05:28:56.783Z,13.93
2023-04-01T05:31:25.309Z,14.70
2023-04-01T05:33:53.066Z,15.10
2023-04-01T05:36:20.608Z,13.57
2023-04-01T05:38:49.998Z,13.70
2023-04-01T05:41:17.521Z,12.90
2023-04-01T05:43:45.025Z,14.25
2023-04-01T05:46:12.546Z,14.73
2023-04-01T05:48:40.521Z,14.00
2023-04-01T05:51:08.126Z,13.68
2023-04-01T05:53:36.917Z,14.30
2023-04-01T05:56:10.285Z,14.05
2023-04-01T05:58:38.547Z,14.20
2023-04-01T06:01:11.509Z,13.52
2023-04-01T06:03:40.628Z,12.80
2023-04-01T06:06:14.708Z,13.20
2023-04-01T06:08:42.325Z,13.93
2023-04-01T06:11:18.308Z,13.73
2023-04-01T06:13:53.124Z,13.82
2023-04-01T06:16:24.765Z,12.10
2023-04-01T06:19:16.299Z,11.75
2023-04-01T06:21:58.011Z,10.75
2023-04-01T06:24:32.884Z,11.55
2023-04-01T06:27:06.222Z,10.85
2023-04-01T06:29:55.320Z,11.43
2023-04-01T06:32:56.225Z,12.40
2023-04-01T06:35:45.061Z,11.15
2023-04-01T06:38:19.374Z,12.45
2023-04-01T06:43:20.769Z,12.93
2023-04-01T06:45:50.094Z,13.15
2023-04-01T06:48:28.739Z,12.55
2023-04-01T06:51:22.116Z,12.77
2023-04-01T06:53:54.331Z,11.60
2023-04-01T06:56:25.236Z,11.13
2023-04-01T06:58:56.129Z,11.55
2023-04-01T07:01:26.244Z,10.70
2023-04-01T07:03:55.684Z,10.45
2023-04-01T07:06:28.025Z,10.35
2023-04-01T07:08:56.777Z,10.75
2023-04-01T07:11:27.199Z,9.02
2023-04-01T07:13:57.460Z,9.25
2023-04-01T07:16:29.678Z,10.32
2023-04-01T07:18:59.992Z,9.63
2023-04-01T07:21:36.627Z,10.07
2023-04-01T07:24:11.378Z,9.38
2023-04-01T07:26:39.037Z,10.07
2023-04-01T07:29:11.974Z,9.73
2023-04-01T07:31:46.000Z,10.18
2023-04-01T07:34:17.802Z,9.68
2023-04-01T07:36:48.979Z,9.93
2023-04-01T07:39:25.547Z,9.80
2023-04-01T07:41:55.891Z,10.48
2023-04-01T07:44:33.150Z,10.13
2023-04-01T07:47:19.395Z,12.38
2023-04-01T07:49:52.264Z,9.80
2023-04-01T07:52:24.912Z,11.40
2023-04-01T07:54:55.511Z,9.77
2023-04-01T08:00:20.744Z,10.07
2023-04-01T08:03:04.902Z,9.07
2023-04-01T08:05:36.999Z,9.73
2023-04-01T08:08:09.730Z,9.15
2023-04-01T08:13:37.929Z,10.63
2023-04-01T08:40:23.600Z,10.48
2023-04-01T08:43:21.401Z,10.85
2023-04-01T08:45:58.987Z,10.60
2023-04-01T08:48:41.117Z,9.18
2023-04-01T08:51:27.338Z,12.23
2023-04-01T08:56:58.944Z,12.80
2023-04-01T08:59:36.349Z,13.93
2023-04-01T09:02:23.801Z,13.50
2023-04-01T09:05:09.723Z,13.27
2023-04-01T09:07:47.723Z,13.82
2023-04-01T09:13:42.962Z,12.43
2023-04-01T09:16:27.622Z,12.98
2023-04-01T09:19:18.638Z,14.95
2023-04-01T09:22:00.520Z,13.20
2023-04-01T09:24:48.779Z,14.27
2023-04-01T09:27:20.669Z,11.82
2023-04-01T09:30:18.279Z,13.50
2023-04-01T09:33:06.520Z,13.70
2023-04-01T09:35:41.072Z,13.02
2023-04-01T09:38:20.131Z,14.02
2023-04-01T09:40:51.534Z,12.02
2023-04-01T09:43:25.421Z,11.90
2023-04-01T09:46:00.636Z,13.00
2023-04-01T09:48:41.765Z,12.48
2023-04-01T09:51:16.182Z,12.35
2023-04-01T09:53:50.731Z,12.63
2023-04-01T09:56:29.734Z,12.75
2023-04-01T09:59:11.418Z,11.68
2023-04-01T10:01:46.235Z,12.07
2023-04-01T10:04:31.687Z,11.82
2023-04-01T10:07:18.051Z,11.13
2023-04-01T10:10:07.403Z,10.30
2023-04-01T10:12:56.243Z,10.73
2023-04-01T10:15:42.265Z,9.20
2023-04-01T10:18:28.295Z,10.15
2023-04-01T10:21:16.257Z,9.85
2023-04-01T10:23:59.311Z,9.68
2023-04-01T10:26:40.631Z,9.52
2023-04-01T10:29:46.520Z,9.90
2023-04-01T10:32:40.939Z,9.75
2023-04-01T10:35:24.584Z,9.57
2023-04-01T10:38:12.274Z,9.05
2023-04-01T10:41:06.597Z,9.80
2023-04-01T10:43:52.668Z,8.63
2023-04-01T10:46:40.614Z,9.05
2023-04-01T10:49:27.487Z,9.25
2023-04-01T10:52:25.478Z,9.13
2023-04-01T10:55:01.903Z,13.82
2023-04-01T10:57:47.628Z,8.13
2023-04-01T11:00:32.548Z,7.40
2023-04-01T11:03:18.226Z,8.45
2023-04-01T11:06:14.426Z,8.52
2023-04-01T11:09:00.637Z,7.78
2023-04-01T11:11:49.050Z,9.00
2023-04-01T11:14:29.931Z,8.00
2023-04-01T11:17:24.637Z,7.32
2023-04-01T11:20:07.191Z,7.30
2023-04-01T11:22:46.967Z,7.00
2023-04-01T11:25:22.700Z,7.88
2023-04-01T11:27:56.095Z,7.47
2023-04-01T11:30:34.974Z,7.07
2023-04-01T11:33:04.521Z,6.90
2023-04-01T11:35:51.123Z,6.43
2023-04-01T11:38:27.083Z,6.68
2023-04-01T11:40:59.085Z,7.20
2023-04-01T11:43:33.851Z,5.88
2023-04-01T11:46:07.178Z,7.03
2023-04-01T11:48:49.667Z,6.10
2023-04-01T11:51:35.016Z,7.20
2023-04-01T11:54:07.411Z,6.40
2023-04-01T11:56:42.403Z,6.28
2023-04-01T11:59:31.945Z,6.60
2023-04-01T12:02:06.497Z,6.80
2023-04-01T12:04:40.950Z,7.18
2023-04-01T12:07:14.508Z,6.82
2023-04-01T12:10:06.642Z,7.22
2023-04-01T12:12:54.000Z,7.45
2023-04-01T12:18:45.047Z,7.18
2023-04-01T12:21:21.863Z,6.28
2023-04-01T12:24:07.265Z,7.70
2023-04-01T12:27:09.105Z,7.05
2023-04-01T12:33:25.827Z,7.53
2023-04-01T12:35:57.532Z,7.03
2023-04-01T12:38:34.563Z,6.25
2023-04-01T12:41:09.672Z,6.45
2023-04-01T12:43:47.773Z,6.03
2023-04-01T12:46:18.324Z,6.70
2023-04-01T12:49:01.029Z,6.07
2023-04-01T12:51:37.091Z,6.18
2023-04-01T12:54:30.726Z,6.65
2023-04-01T12:57:04.359Z,5.85
2023-04-01T12:59:43.921Z,5.82
2023-04-01T13:02:22.647Z,6.80
2023-04-01T13:05:23.425Z,5.65
2023-04-01T13:08:01.616Z,6.38
2023-04-01T13:10:46.843Z,6.20
2023-04-01T13:13:32.060Z,4.63
2023-04-01T13:16:04.726Z,4.20
2023-04-01T13:18:38.366Z,4.30
2023-04-01T13:21:08.325Z,5.60
2023-04-01T13:23:40.612Z,4.38
2023-04-01T13:26:14.716Z,4.05
2023-04-01T13:28:45.996Z,3.65
2023-04-01T13:31:23.748Z,3.85
2023-04-01T13:33:55.654Z,3.97
2023-04-01T13:36:30.325Z,3.63
2023-04-01T13:39:02.929Z,3.97
2023-04-01T13:41:36.766Z,4.00
2023-04-01T13:44:09.149Z,3.58
2023-04-01T13:46:43.694Z,2.97
2023-04-01T13:49:22.321Z,3.80
2023-04-01T13:51:58.760Z,3.08
2023-04-01T13:54:57.366Z,3.72
2023-04-01T13:57:36.109Z,3.50
2023-04-01T14:00:18.547Z,3.30
2023-04-01T14:02:59.463Z,3.88
2023-04-01T14:05:43.389Z,3.40
2023-04-01T14:10:41.396Z,3.50
2023-04-01T14:13:13.171Z,3.58
2023-04-01T14:16:00.380Z,3.83
2023-04-01T14:18:46.626Z,3.65
2023-04-01T14:21:20.573Z,3.88
2023-04-01T14:24:04.140Z,3.78
2023-04-01T14:27:00.153Z,4.10
2023-04-01T14:29:33.519Z,4.05
2023-04-01T14:32:04.517Z,4.40
2023-04-01T14:34:39.541Z,4.25
2023-04-01T14:37:17.758Z,4.43
2023-04-01T14:39:51.209Z,4.75
2023-04-01T14:42:44.176Z,4.53
2023-04-01T14:45:27.082Z,4.55
2023-04-01T14:47:56.905Z,4.45
2023-04-01T14:50:26.213Z,4.88
2023-04-01T14:53:11.203Z,4.47
2023-04-01T14:55:48.908Z,4.72
2023-04-01T14:58:17.227Z,4.45
2023-04-01T15:00:49.951Z,4.90
2023-04-01T15:03:20.377Z,4.65
2023-04-01T15:05:51.483Z,4.38
2023-04-01T15:08:22.467Z,3.60
2023-04-01T15:11:06.825Z,4.65
2023-04-01T15:13:46.310Z,4.22
2023-04-01T15:16:17.017Z,3.88
2023-04-01T15:18:48.558Z,4.28
2023-04-01T15:21:20.801Z,5.10
2023-04-01T15:23:57.118Z,4.57
2023-04-01T15:26:31.290Z,4.72
2023-04-01T15:29:05.204Z,4.60
2023-04-01T15:31:36.448Z,4.47
2023-04-01T15:34:24.674Z,4.20
2023-04-01T15:36:55.614Z,4.50
2023-04-01T15:39:27.456Z,4.45
2023-04-01T15:42:06.979Z,4.18
2023-04-01T15:44:53.318Z,5.32
2023-04-01T15:47:31.263Z,5.40
2023-04-01T15:50:21.228Z,5.30
2023-04-01T15:52:53.679Z,4.70
2023-04-01T15:55:27.292Z,5.93
2023-04-01T15:58:05.639Z,5.40
2023-04-01T16:00:33.908Z,5.05
2023-04-01T16:03:20.990Z,6.00
2023-04-01T16:06:02.076Z,4.70
2023-04-01T16:08:47.380Z,4.53
2023-04-01T16:11:21.706Z,4.32
2023-04-01T16:13:53.877Z,4.53
2023-04-01T16:16:28.160Z,4.15
2023-04-01T16:21:31.158Z,5.10
2023-04-01T16:24:00.253Z,4.85
2023-04-01T16:26:30.908Z,5.50
2023-04-01T16:29:05.747Z,4.95
2023-04-01T16:31:37.161Z,5.25
2023-04-01T16:34:12.908Z,4.47
2023-04-01T16:36:44.461Z,5.90
2023-04-01T16:39:19.825Z,4.90
2023-04-01T16:41:51.698Z,6.50
2023-04-01T16:44:21.577Z,5.55
2023-04-01T16:46:50.962Z,5.95
2023-04-01T16:49:25.258Z,7.00
2023-04-01T16:54:29.935Z,6.30
2023-04-01T16:57:04.967Z,6.50
2023-04-01T16:59:37.021Z,5.75
2023-04-01T17:02:06.358Z,5.70
2023-04-01T17:04:36.768Z,6.18
2023-04-01T17:07:09.297Z,6.22
2023-04-01T17:09:51.189Z,5.75
2023-04-01T17:12:27.779Z,6.50
2023-04-01T17:15:00.581Z,6.55
2023-04-01T17:17:33.818Z,6.93
2023-04-01T17:20:10.165Z,6.38
2023-04-01T17:22:43.335Z,6.72
2023-04-01T17:25:16.495Z,7.05
2023-04-01T17:27:50.652Z,7.72
2023-04-01T17:30:22.626Z,7.60
2023-04-01T17:32:57.446Z,6.82
2023-04-01T17:35:29.003Z,7.55
2023-04-01T17:38:01.681Z,6.82
2023-04-01T17:40:36.806Z,6.80
2023-04-01T17:43:09.820Z,6.88
2023-04-01T17:45:42.190Z,6.45
2023-04-01T17:48:13.211Z,6.70
2023-04-01T17:50:53.256Z,5.65
2023-04-01T17:53:28.676Z,6.53
2023-04-01T17:56:05.004Z,6.97
2023-04-01T17:58:37.332Z,7.03
2023-04-01T18:01:11.389Z,7.65
2023-04-01T18:03:57.547Z,7.22
2023-04-01T18:06:32.386Z,6.80
2023-04-01T18:09:01.904Z,6.97
2023-04-01T18:11:36.343Z,7.25
2023-04-01T18:14:22.259Z,7.40
2023-04-01T18:17:04.170Z,8.10
2023-04-01T18:19:37.695Z,8.57
2023-04-01T18:22:11.692Z,9.20
2023-04-01T18:24:44.993Z,9.18
2023-04-01T18:27:17.716Z,9.63
2023-04-01T18:29:51.690Z,9.05
2023-04-01T18:32:28.590Z,10.05
2023-04-01T18:34:58.569Z,10.25
2023-04-01T18:37:27.081Z,10.50
2023-04-01T18:39:56.127Z,9.45
2023-04-01T18:42:30.398Z,9.88
2023-04-01T18:47:32.339Z,9.48
2023-04-01T18:50:04.076Z,9.18
2023-04-01T18:52:35.219Z,8.32
2023-04-01T18:55:32.951Z,8.48
2023-04-01T18:58:13.673Z,8.13
2023-04-01T19:00:46.024Z,7.65
2023-04-01T19:03:20.511Z,8.93
2023-04-01T19:05:49.426Z,8.23
2023-04-01T19:08:21.083Z,7.68
2023-04-01T19:10:50.633Z,7.70
2023-04-01T19:13:21.692Z,8.20
2023-04-01T19:15:52.828Z,8.25
2023-04-01T19:18:38.184Z,8.40
2023-04-01T19:21:11.267Z,8.82
2023-04-01T19:23:53.610Z,8.23
2023-04-01T19:26:24.155Z,9.05
2023-04-01T19:28:56.161Z,10.50
2023-04-01T19:31:33.314Z,9.00
2023-04-01T19:34:07.560Z,9.90
2023-04-01T19:36:41.540Z,11.88
2023-04-01T19:39:15.521Z,11.80
2023-04-01T19:41:48.680Z,10.32
2023-04-01T19:44:25.787Z,10.45
2023-04-01T19:46:56.163Z,10.05
2023-04-01T19:49:32.975Z,9.57
2023-04-01T19:52:04.778Z,9.90
2023-04-01T19:54:36.019Z,9.73
2023-04-01T19:57:12.380Z,9.50
2023-04-01T19:59:41.678Z,9.98
2023-04-01T20:02:24.290Z,9.15
2023-04-01T20:04:55.581Z,9.43
2023-04-01T20:07:25.819Z,9.15
2023-04-01T20:09:59.882Z,8.63
2023-04-01T20:12:35.337Z,9.38
2023-04-01T20:15:06.264Z,10.05
2023-04-01T20:17:36.912Z,9.30
2023-04-01T20:20:17.406Z,9.45
2023-04-01T20:22:57.680Z,8.70
2023-04-01T20:25:26.573Z,9.57
2023-04-01T20:27:56.939Z,10.23
2023-04-01T20:30:51.533Z,9.73
2023-04-01T20:33:27.602Z,10.85
2023-04-01T20:36:07.050Z,9.82
2023-04-01T20:38:53.620Z,10.55
2023-04-01T20:41:25.249Z,11.15
2023-04-01T20:44:06.051Z,11.90
2023-04-01T20:46:42.868Z,12.75
2023-04-01T20:49:22.951Z,12.40
2023-04-01T20:51:55.653Z,12.60
2023-04-01T20:54:29.748Z,11.82
2023-04-01T20:57:03.180Z,11.60
2023-04-01T20:59:37.286Z,9.63
2023-04-01T21:02:10.590Z,10.50
2023-04-01T21:04:45.670Z,9.23
2023-04-01T21:07:16.946Z,11.27
2023-04-01T21:09:49.312Z,9.75
2023-04-01T21:12:22.008Z,10.90
2023-04-01T21:14:59.729Z,10.15
2023-04-01T21:17:32.910Z,11.52
2023-04-01T21:20:10.573Z,9.75
2023-04-01T21:22:43.121Z,11.25
2023-04-01T21:25:37.693Z,11.05
2023-04-01T21:28:13.186Z,10.65
2023-04-01T21:30:47.629Z,11.00
2023-04-01T21:33:31.344Z,11.25
2023-04-01T21:36:03.461Z,11.67
2023-04-01T21:38:37.757Z,10.15
2023-04-01T21:43:41.019Z,10.30
2023-04-01T21:46:30.271Z,11.20
2023-04-01T21:49:11.952Z,10.57
2023-04-01T21:52:11.533Z,10.30
2023-04-01T21:54:50.923Z,10.43
2023-04-01T21:57:37.104Z,10.35
2023-04-01T22:00:25.674Z,10.73
2023-04-01T22:03:19.774Z,11.02
2023-04-01T22:05:57.111Z,10.18
2023-04-01T22:08:32.357Z,10.35
2023-04-01T22:11:04.307Z,11.95
2023-04-01T22:13:34.736Z,10.90
2023-04-01T22:16:08.563Z,12.50
2023-04-01T22:18:39.029Z,12.18
2023-04-01T22:21:09.894Z,11.02
2023-04-01T22:23:41.625Z,11.63
2023-04-01T22:26:15.626Z,11.77
2023-04-01T22:28:48.358Z,11.52
2023-04-01T22:31:20.701Z,12.77
2023-04-01T22:33:54.066Z,12.13
2023-04-01T22:36:27.679Z,10.60
2023-04-01T22:39:00.852Z,9.85
2023-04-01T22:41:35.584Z,10.65
2023-04-01T22:44:03.112Z,10.40
2023-04-01T22:46:44.880Z,11.60
2023-04-01T22:49:17.634Z,10.65
2023-04-01T22:51:46.645Z,11.68
2023-04-01T22:54:19.326Z,10.48
2023-04-01T22:56:49.989Z,9.13
2023-04-01T22:59:19.705Z,9.50
2023-04-01T23:01:51.712Z,10.10
2023-04-01T23:04:23.791Z,9.50
2023-04-01T23:06:53.725Z,10.82
2023-04-01T23:09:22.079Z,10.38
2023-04-01T23:11:53.896Z,10.27
2023-04-01T23:14:38.079Z,8.98
2023-04-01T23:17:13.277Z,10.57
2023-04-01T23:19:44.619Z,11.25
2023-04-01T23:22:18.366Z,11.73
2023-04-01T23:24:49.390Z,9.85
2023-04-01T23:27:20.948Z,11.15
2023-04-01T23:29:48.416Z,9.85
2023-04-01T23:32:17.382Z,9.60
2023-04-01T23:34:49.238Z,10.52
2023-04-01T23:37:18.877Z,10.93
2023-04-01T23:39:47.426Z,10.95
2023-04-01T23:42:16.137Z,10.65
2023-04-01T23:44:45.486Z,11.07
2023-04-01T23:47:16.079Z,9.57
2023-04-01T23:49:45.696Z,10.50
2023-04-01T23:52:15.696Z,10.32
2023-04-01T23:54:45.687Z,10.40
2023-04-01T23:57:14.591Z,10.50
2023-04-01T23:59:42.436Z,10.50
